createdAt,value
2023-03-22T00:01:34.733Z,2.60
2023-03-22T00:04:02.422Z,2.65
2023-03-22T00:06:30.031Z,2.83
2023-03-22T00:08:57.537Z,3.35
2023-03-22T00:11:25.870Z,2.38
2023-03-22T00:13:53.757Z,2.80
2023-03-22T00:16:22.127Z,2.28
2023-03-22T00:18:49.643Z,2.30
2023-03-22T00:21:17.875Z,2.17
2023-03-22T00:23:45.559Z,2.17
2023-03-22T00:26:14.214Z,2.38
2023-03-22T00:28:42.773Z,2.55
2023-03-22T00:31:10.892Z,2.95
2023-03-22T00:33:39.107Z,1.90
2023-03-22T00:36:09.505Z,2.97
2023-03-22T00:38:44.774Z,2.40
2023-03-22T00:41:18.598Z,2.45
2023-03-22T00:43:47.749Z,2.53
2023-03-22T00:46:17.110Z,2.60
2023-03-22T00:48:45.107Z,3.63
2023-03-22T00:51:14.195Z,3.25
2023-03-22T00:53:43.457Z,2.45
2023-03-22T00:56:16.230Z,3.00
2023-03-22T00:59:06.586Z,2.38
2023-03-22T01:01:34.192Z,3.75
2023-03-22T01:04:05.035Z,2.50
2023-03-22T01:06:34.149Z,3.00
2023-03-22T01:09:01.983Z,3.75
2023-03-22T01:11:29.552Z,3.20
2023-03-22T01:13:57.232Z,2.75
2023-03-22T01:16:25.256Z,2.78
2023-03-22T01:18:52.876Z,2.72
2023-03-22T01:21:20.612Z,2.78
2023-03-22T01:23:50.367Z,2.35
2023-03-22T01:26:18.153Z,2.42
2023-03-22T01:28:45.853Z,2.45
2023-03-22T01:31:13.441Z,3.63
2023-03-22T01:33:41.128Z,2.65
2023-03-22T01:36:08.886Z,2.40
2023-03-22T01:38:36.557Z,3.17
2023-03-22T01:41:04.218Z,2.95
2023-03-22T01:43:37.249Z,3.30
2023-03-22T01:46:05.063Z,3.65
2023-03-22T01:48:42.021Z,2.72
2023-03-22T01:51:17.917Z,2.90
2023-03-22T01:54:40.691Z,2.90
2023-03-22T01:57:21.703Z,2.95
2023-03-22T01:59:50.320Z,2.67
2023-03-22T02:02:43.206Z,3.53
2023-03-22T02:05:23.339Z,2.97
2023-03-22T02:07:53.048Z,3.10
2023-03-22T02:10:27.220Z,2.85
2023-03-22T02:13:17.772Z,2.95
2023-03-22T02:16:16.537Z,3.78
2023-03-22T02:19:30.599Z,3.17
2023-03-22T02:22:28.163Z,3.33
2023-03-22T02:25:28.502Z,2.78
2023-03-22T02:28:19.493Z,2.93
2023-03-22T02:34:00.825Z,3.25
2023-03-22T02:36:53.779Z,3.90
2023-03-22T02:39:26.646Z,4.10
2023-03-22T02:42:06.788Z,3.55
2023-03-22T02:44:51.555Z,3.67
2023-03-22T02:47:24.506Z,2.90
2023-03-22T02:50:15.844Z,3.58
2023-03-22T02:53:09.765Z,4.53
2023-03-22T02:55:44.837Z,2.60
2023-03-22T02:58:23.153Z,3.00
2023-03-22T03:00:56.579Z,2.65
2023-03-22T03:03:29.301Z,3.15
2023-03-22T03:06:08.386Z,3.10
2023-03-22T03:08:38.004Z,3.08
2023-03-22T03:11:07.051Z,2.70
2023-03-22T03:13:34.803Z,2.95
2023-03-22T03:16:07.574Z,3.65
2023-03-22T03:19:07.854Z,4.07
2023-03-22T03:22:01.001Z,2.90
2023-03-22T03:24:48.680Z,3.35
2023-03-22T03:27:23.106Z,3.25
2023-03-22T03:30:01.935Z,2.55
2023-03-22T03:32:37.836Z,2.80
2023-03-22T03:35:23.006Z,3.05
2023-03-22T03:37:57.667Z,3.58
2023-03-22T03:40:34.845Z,3.30
2023-03-22T03:43:04.569Z,2.92
2023-03-22T03:45:33.560Z,3.05
2023-03-22T03:48:06.606Z,2.67
2023-03-22T03:50:34.574Z,2.88
2023-03-22T03:53:02.049Z,2.80
2023-03-22T03:55:30.877Z,2.90
2023-03-22T03:57:58.546Z,2.38
2023-03-22T04:00:26.518Z,2.92
2023-03-22T04:03:19.693Z,3.22
2023-03-22T04:06:12.860Z,3.15
2023-03-22T04:08:45.556Z,2.10
2023-03-22T04:11:15.443Z,3.10
2023-03-22T04:13:43.884Z,2.25
2023-03-22T04:16:16.129Z,1.95
2023-03-22T04:18:44.288Z,2.00
2023-03-22T04:21:13.288Z,2.83
2023-03-22T04:23:48.526Z,2.15
2023-03-22T04:26:17.428Z,3.05
2023-03-22T04:28:55.415Z,2.60
2023-03-22T04:31:23.272Z,2.80
2023-03-22T04:36:52.921Z,1.80
2023-03-22T04:39:34.615Z,2.33
2023-03-22T04:42:26.216Z,2.08
2023-03-22T04:45:04.987Z,1.83
2023-03-22T04:47:33.810Z,1.60
2023-03-22T04:50:07.681Z,2.05
2023-03-22T04:52:42.517Z,1.73
2023-03-22T04:55:10.250Z,1.38
2023-03-22T04:57:37.955Z,1.67
2023-03-22T05:00:08.565Z,1.45
2023-03-22T05:02:41.658Z,1.20
2023-03-22T05:05:16.871Z,1.52
2023-03-22T05:07:47.434Z,1.88
2023-03-22T05:10:15.512Z,1.63
2023-03-22T05:12:43.406Z,1.20
2023-03-22T05:15:22.543Z,1.35
2023-03-22T05:17:52.030Z,1.55
2023-03-22T05:20:20.359Z,1.60
2023-03-22T05:22:57.037Z,1.33
2023-03-22T05:25:27.126Z,1.50
2023-03-22T05:27:55.120Z,1.50
2023-03-22T05:30:51.449Z,1.60
2023-03-22T05:33:39.595Z,2.13
2023-03-22T05:36:11.218Z,1.60
2023-03-22T05:38:49.886Z,1.30
2023-03-22T05:41:17.574Z,1.30
2023-03-22T05:43:45.391Z,1.30
2023-03-22T05:46:13.448Z,1.20
2023-03-22T05:48:49.392Z,1.63
2023-03-22T05:51:19.242Z,1.45
2023-03-22T05:53:51.616Z,3.28
2023-03-22T05:56:24.397Z,1.83
2023-03-22T05:58:58.168Z,2.05
2023-03-22T06:01:26.021Z,2.35
2023-03-22T06:04:15.500Z,1.83
2023-03-22T06:06:53.888Z,1.40
2023-03-22T06:09:47.817Z,2.00
2023-03-22T06:12:24.589Z,1.98
2023-03-22T06:15:01.098Z,1.50
2023-03-22T06:17:44.015Z,1.45
2023-03-22T06:20:15.657Z,1.60
2023-03-22T06:22:50.081Z,1.58
2023-03-22T06:25:18.876Z,1.63
2023-03-22T06:27:49.484Z,2.00
2023-03-22T06:30:19.661Z,1.90
2023-03-22T06:33:06.227Z,1.33
2023-03-22T06:35:38.369Z,1.63
2023-03-22T06:38:08.080Z,1.70
2023-03-22T06:40:38.036Z,1.48
2023-03-22T06:43:07.409Z,1.27
2023-03-22T06:45:37.869Z,1.33
2023-03-22T06:48:06.768Z,1.10
2023-03-22T06:50:45.733Z,1.50
2023-03-22T06:53:16.076Z,1.73
2023-03-22T06:55:44.250Z,1.65
2023-03-22T06:58:16.215Z,1.63
2023-03-22T07:00:44.878Z,1.35
2023-03-22T07:03:14.424Z,2.00
2023-03-22T07:08:37.073Z,2.05
2023-03-22T07:11:06.511Z,1.60
2023-03-22T07:13:34.357Z,1.58
2023-03-22T07:16:09.058Z,3.35
2023-03-22T07:18:45.415Z,1.90
2023-03-22T07:21:13.035Z,2.50
2023-03-22T07:23:43.106Z,2.58
2023-03-22T07:26:15.003Z,2.10
2023-03-22T07:28:46.135Z,2.00
2023-03-22T07:31:16.105Z,2.45
2023-03-22T07:33:52.635Z,2.42
2023-03-22T07:36:25.599Z,1.93
2023-03-22T07:38:54.283Z,2.40
2023-03-22T07:41:32.491Z,2.50
2023-03-22T07:44:23.375Z,2.55
2023-03-22T07:47:09.361Z,2.88
2023-03-22T07:49:51.484Z,2.80
2023-03-22T07:52:25.208Z,3.05
2023-03-22T07:54:52.703Z,3.33
2023-03-22T07:57:20.125Z,3.20
2023-03-22T07:59:54.427Z,3.38
2023-03-22T08:02:24.285Z,3.13
2023-03-22T08:04:56.481Z,3.72
2023-03-22T08:07:37.589Z,3.63
2023-03-22T08:10:05.750Z,3.42
2023-03-22T08:12:34.948Z,2.92
2023-03-22T08:15:13.261Z,2.60
2023-03-22T08:17:42.471Z,3.20
2023-03-22T08:20:18.402Z,2.70
2023-03-22T08:22:51.430Z,2.90
2023-03-22T08:25:22.349Z,3.45
2023-03-22T08:27:51.400Z,4.32
2023-03-22T08:30:19.156Z,3.28
2023-03-22T08:32:46.770Z,3.33
2023-03-22T08:35:14.159Z,3.63
2023-03-22T08:37:42.559Z,3.15
2023-03-22T08:40:11.571Z,2.67
2023-03-22T08:42:46.799Z,2.45
2023-03-22T08:45:15.006Z,2.20
2023-03-22T08:47:49.032Z,2.67
2023-03-22T08:50:18.809Z,2.05
2023-03-22T08:52:53.878Z,2.10
2023-03-22T08:55:31.598Z,1.80
2023-03-22T08:58:20.045Z,1.70
2023-03-22T09:00:49.701Z,1.90
2023-03-22T09:03:47.305Z,2.00
2023-03-22T09:06:15.432Z,1.58
2023-03-22T09:08:44.624Z,1.90
2023-03-22T09:11:17.889Z,1.60
2023-03-22T09:13:48.852Z,1.80
2023-03-22T09:16:17.240Z,1.55
2023-03-22T09:18:46.378Z,1.77
2023-03-22T09:21:18.106Z,2.00
2023-03-22T09:23:53.097Z,1.70
2023-03-22T09:26:27.193Z,2.30
2023-03-22T09:28:55.751Z,1.92
2023-03-22T09:31:23.538Z,1.55
2023-03-22T09:34:02.419Z,1.75
2023-03-22T09:36:32.295Z,1.88
2023-03-22T09:39:00.102Z,1.85
2023-03-22T09:41:45.881Z,1.42
2023-03-22T09:44:28.691Z,1.25
2023-03-22T09:46:59.984Z,2.05
2023-03-22T09:49:50.536Z,1.17
2023-03-22T09:52:21.359Z,1.27
2023-03-22T09:54:51.531Z,1.80
2023-03-22T09:57:30.126Z,1.58
2023-03-22T10:00:29.734Z,1.15
2023-03-22T10:03:28.780Z,1.10
2023-03-22T10:06:06.593Z,1.05
2023-03-22T10:08:47.536Z,0.90
2023-03-22T10:11:30.666Z,0.85
2023-03-22T10:14:14.156Z,0.80
2023-03-22T10:16:43.118Z,0.77
2023-03-22T10:19:21.316Z,0.80
2023-03-22T10:21:51.364Z,0.93
2023-03-22T10:24:27.163Z,1.10
2023-03-22T10:26:55.252Z,1.00
2023-03-22T10:29:39.865Z,0.90
2023-03-22T10:32:22.530Z,1.10
2023-03-22T10:34:51.547Z,1.10
2023-03-22T10:37:24.888Z,1.02
2023-03-22T10:39:55.877Z,1.15
2023-03-22T10:42:27.940Z,1.25
2023-03-22T10:45:07.081Z,0.63
2023-03-22T10:47:42.752Z,0.80
2023-03-22T10:50:22.364Z,0.70
2023-03-22T10:53:21.987Z,0.80
2023-03-22T10:55:49.532Z,0.50
2023-03-22T10:58:20.800Z,0.90
2023-03-22T11:00:59.618Z,0.90
2023-03-22T11:03:36.420Z,0.80
2023-03-22T11:06:06.870Z,0.90
2023-03-22T11:08:52.160Z,1.00
2023-03-22T11:11:28.390Z,1.55
2023-03-22T11:14:14.140Z,1.23
2023-03-22T11:16:55.004Z,1.10
2023-03-22T11:19:47.234Z,1.42
2023-03-22T11:22:37.755Z,1.65
2023-03-22T11:25:27.842Z,0.90
2023-03-22T11:28:10.257Z,0.98
2023-03-22T11:30:38.122Z,0.93
2023-03-22T11:33:08.612Z,0.80
2023-03-22T11:35:38.880Z,0.50
2023-03-22T11:38:07.529Z,0.50
2023-03-22T11:40:36.679Z,0.70
2023-03-22T11:43:20.731Z,0.60
2023-03-22T11:45:53.436Z,0.85
2023-03-22T11:48:28.221Z,0.60
2023-03-22T11:51:08.744Z,0.45
2023-03-22T11:53:42.626Z,0.98
2023-03-22T11:56:12.786Z,0.32
2023-03-22T11:59:07.586Z,0.52
2023-03-22T12:02:05.117Z,0.50
2023-03-22T12:04:39.407Z,0.60
2023-03-22T12:07:16.268Z,0.45
2023-03-22T12:09:46.793Z,0.40
2023-03-22T12:12:21.627Z,0.50
2023-03-22T12:14:52.819Z,0.30
2023-03-22T12:17:36.614Z,0.70
2023-03-22T12:20:08.457Z,0.77
2023-03-22T12:22:41.849Z,0.50
2023-03-22T12:25:15.929Z,0.40
2023-03-22T12:27:52.016Z,0.60
2023-03-22T12:30:26.726Z,0.40
2023-03-22T12:33:02.350Z,0.52
2023-03-22T12:35:33.665Z,0.70
2023-03-22T12:38:27.768Z,0.77
2023-03-22T12:41:00.435Z,0.50
2023-03-22T12:44:03.314Z,0.45
2023-03-22T12:46:35.922Z,0.50
2023-03-22T12:49:15.651Z,0.55
2023-03-22T12:51:44.681Z,0.57
2023-03-22T12:54:15.318Z,0.73
2023-03-22T12:56:46.058Z,0.70
2023-03-22T13:01:52.265Z,0.52
2023-03-22T13:04:33.952Z,0.50
2023-03-22T13:07:16.671Z,0.75
2023-03-22T13:09:49.618Z,0.60
2023-03-22T13:12:17.291Z,0.70
2023-03-22T13:14:56.651Z,0.60
2023-03-22T13:17:24.927Z,0.77
2023-03-22T13:20:06.860Z,1.13
2023-03-22T13:22:37.781Z,1.33
2023-03-22T13:25:14.653Z,1.10
2023-03-22T13:27:57.591Z,1.10
2023-03-22T13:31:10.741Z,1.70
2023-03-22T13:33:38.959Z,1.13
2023-03-22T13:36:26.028Z,1.20
2023-03-22T13:38:59.157Z,1.40
2023-03-22T13:41:30.119Z,1.80
2023-03-22T13:44:03.634Z,1.50
2023-03-22T13:46:40.865Z,2.20
2023-03-22T13:49:28.071Z,1.80
2023-03-22T13:52:00.724Z,1.98
2023-03-22T13:54:44.235Z,1.80
2023-03-22T13:57:37.774Z,3.30
2023-03-22T14:00:36.688Z,2.42
2023-03-22T14:03:35.848Z,2.45
2023-03-22T14:06:22.192Z,2.58
2023-03-22T14:08:54.462Z,2.40
2023-03-22T14:11:46.032Z,2.30
2023-03-22T14:14:19.278Z,2.53
2023-03-22T14:16:53.581Z,3.42
2023-03-22T14:19:25.707Z,4.10
